Terminal Aerodrome Forecast
Issued by NWS Wilmington, NC

Home | Current Version | Previous Version | Text Only | Print | Product List | Glossary On
Versions: 1 2 3 4 5 6 7 8 9 10 11 12 13 14 15 16 17
000
FTUS42 KILM 271507 AAB
TAFMYR
TAF AMD
KMYR 271507Z 2715/2812 16007KT P6SM SCT030 BKN050
     FM271700 16012G16KT P6SM SCT040 BKN250
     FM280200 VRB03KT P6SM SKC=

USA.gov is the U.S. government's official web portal to all federal, state and local government web resources and services.